Angelica, Wisconsin
Current Conditions -  °F | °C
As of 9:53 AM on Thursday 27 Nov 2014 (Local Time) from KGRB Reporting Station
Overcast Overcast  
Wind Chill: -15°   Ceiling: 5500
Heat Index: -8°   Visibility: 10mi
Dew Point: -14°   Wind: 12mph
Humidity: 62%   Direction: 330°NNW
Pressure: 30.35"   Gusts: NA
Location:  44.6594°N, 88.2945°W
Report Text: KGRB 271553Z 33010KT 10SM OVC055 M08/M14 A3035 RMK AO2 SLP292 T10831144
Loading
Personal Weather Stations






























Interactive Weather Map New forecast layout! Learn more

10-Day Weather Forecast

Advertisements
Track Severe Weather on mobile